sensor_id;sensor_type;location;lat;lon;timestamp;P1;durP1;ratioP1;P2;durP2;ratioP2
12976;SDS011;6553;48.412;9.514;2023-09-30T00:00:58;7.38;;;5.10;;
12976;SDS011;6553;48.412;9.514;2023-09-30T00:03:24;8.07;;;5.32;;
12976;SDS011;6553;48.412;9.514;2023-09-30T00:05:49;8.13;;;5.43;;
12976;SDS011;6553;48.412;9.514;2023-09-30T00:08:15;8.10;;;5.18;;
12976;SDS011;6553;48.412;9.514;2023-09-30T00:10:41;7.70;;;5.30;;
12976;SDS011;6553;48.412;9.514;2023-09-30T00:13:07;7.60;;;5.50;;
12976;SDS011;6553;48.412;9.514;2023-09-30T00:15:33;8.20;;;5.28;;
12976;SDS011;6553;48.412;9.514;2023-09-30T00:17:59;7.00;;;4.75;;
12976;SDS011;6553;48.412;9.514;2023-09-30T00:20:26;9.07;;;5.40;;
12976;SDS011;6553;48.412;9.514;2023-09-30T00:22:53;8.27;;;5.38;;
12976;SDS011;6553;48.412;9.514;2023-09-30T00:25:19;7.53;;;5.07;;
12976;SDS011;6553;48.412;9.514;2023-09-30T00:27:46;10.23;;;5.68;;
12976;SDS011;6553;48.412;9.514;2023-09-30T00:30:12;8.55;;;5.22;;
12976;SDS011;6553;48.412;9.514;2023-09-30T00:32:38;7.70;;;4.35;;
12976;SDS011;6553;48.412;9.514;2023-09-30T00:35:07;9.80;;;5.53;;
12976;SDS011;6553;48.412;9.514;2023-09-30T00:37:39;7.78;;;4.80;;
12976;SDS011;6553;48.412;9.514;2023-09-30T00:40:06;7.55;;;4.63;;
12976;SDS011;6553;48.412;9.514;2023-09-30T00:42:37;7.38;;;5.10;;
12976;SDS011;6553;48.412;9.514;2023-09-30T00:45:04;7.22;;;5.00;;
12976;SDS011;6553;48.412;9.514;2023-09-30T00:47:31;7.65;;;5.03;;
12976;SDS011;6553;48.412;9.514;2023-09-30T00:49:59;8.95;;;5.45;;
12976;SDS011;6553;48.412;9.514;2023-09-30T00:52:25;7.93;;;4.78;;
12976;SDS011;6553;48.412;9.514;2023-09-30T00:54:52;7.90;;;5.05;;
12976;SDS011;6553;48.412;9.514;2023-09-30T00:57:20;8.07;;;4.75;;
12976;SDS011;6553;48.412;9.514;2023-09-30T00:59:47;7.70;;;4.78;;
12976;SDS011;6553;48.412;9.514;2023-09-30T01:02:16;8.18;;;4.95;;
12976;SDS011;6553;48.412;9.514;2023-09-30T01:04:47;6.72;;;4.53;;
12976;SDS011;6553;48.412;9.514;2023-09-30T01:07:14;8.02;;;4.85;;
12976;SDS011;6553;48.412;9.514;2023-09-30T01:09:40;7.63;;;4.88;;
12976;SDS011;6553;48.412;9.514;2023-09-30T01:12:07;7.95;;;5.07;;
12976;SDS011;6553;48.412;9.514;2023-09-30T01:14:34;7.18;;;4.65;;
12976;SDS011;6553;48.412;9.514;2023-09-30T01:17:01;7.32;;;4.82;;
12976;SDS011;6553;48.412;9.514;2023-09-30T01:19:27;7.97;;;4.93;;
12976;SDS011;6553;48.412;9.514;2023-09-30T01:21:57;7.18;;;4.63;;
12976;SDS011;6553;48.412;9.514;2023-09-30T01:24:30;6.13;;;4.70;;
12976;SDS011;6553;48.412;9.514;2023-09-30T01:27:06;6.57;;;4.57;;
12976;SDS011;6553;48.412;9.514;2023-09-30T01:29:32;8.98;;;4.90;;
12976;SDS011;6553;48.412;9.514;2023-09-30T01:31:58;7.10;;;4.97;;
12976;SDS011;6553;48.412;9.514;2023-09-30T01:34:23;8.45;;;4.82;;
12976;SDS011;6553;48.412;9.514;2023-09-30T01:36:49;6.68;;;4.45;;
12976;SDS011;6553;48.412;9.514;2023-09-30T01:39:15;7.18;;;4.70;;
12976;SDS011;6553;48.412;9.514;2023-09-30T01:41:41;7.55;;;4.40;;
12976;SDS011;6553;48.412;9.514;2023-09-30T01:44:07;6.90;;;4.70;;
12976;SDS011;6553;48.412;9.514;2023-09-30T01:46:35;7.13;;;4.80;;
12976;SDS011;6553;48.412;9.514;2023-09-30T01:49:01;6.30;;;4.50;;
12976;SDS011;6553;48.412;9.514;2023-09-30T01:51:29;7.13;;;4.75;;
12976;SDS011;6553;48.412;9.514;2023-09-30T01:53:57;6.10;;;4.05;;
12976;SDS011;6553;48.412;9.514;2023-09-30T01:56:23;7.80;;;4.65;;
12976;SDS011;6553;48.412;9.514;2023-09-30T01:58:49;7.80;;;4.75;;
12976;SDS011;6553;48.412;9.514;2023-09-30T02:01:15;7.93;;;4.68;;
12976;SDS011;6553;48.412;9.514;2023-09-30T02:03:41;7.65;;;4.90;;
12976;SDS011;6553;48.412;9.514;2023-09-30T02:06:07;7.00;;;4.70;;
12976;SDS011;6553;48.412;9.514;2023-09-30T02:08:33;7.32;;;4.50;;
12976;SDS011;6553;48.412;9.514;2023-09-30T02:11:02;6.20;;;4.38;;
12976;SDS011;6553;48.412;9.514;2023-09-30T02:13:31;7.13;;;4.53;;
12976;SDS011;6553;48.412;9.514;2023-09-30T02:16:00;6.72;;;4.57;;
12976;SDS011;6553;48.412;9.514;2023-09-30T02:18:26;7.75;;;4.60;;
12976;SDS011;6553;48.412;9.514;2023-09-30T02:20:52;7.80;;;4.72;;
12976;SDS011;6553;48.412;9.514;2023-09-30T02:23:18;6.68;;;4.00;;
12976;SDS011;6553;48.412;9.514;2023-09-30T02:25:44;7.65;;;4.88;;
12976;SDS011;6553;48.412;9.514;2023-09-30T02:28:10;7.03;;;4.40;;
12976;SDS011;6553;48.412;9.514;2023-09-30T02:30:36;6.75;;;4.63;;
12976;SDS011;6553;48.412;9.514;2023-09-30T02:33:02;5.72;;;3.83;;
12976;SDS011;6553;48.412;9.514;2023-09-30T02:35:29;6.32;;;4.03;;
12976;SDS011;6553;48.412;9.514;2023-09-30T02:37:55;6.43;;;4.30;;
12976;SDS011;6553;48.412;9.514;2023-09-30T02:40:21;6.10;;;3.85;;
12976;SDS011;6553;48.412;9.514;2023-09-30T02:42:49;6.07;;;3.95;;
12976;SDS011;6553;48.412;9.514;2023-09-30T02:45:16;6.80;;;4.60;;
12976;SDS011;6553;48.412;9.514;2023-09-30T02:47:43;5.50;;;4.03;;
12976;SDS011;6553;48.412;9.514;2023-09-30T02:50:10;6.35;;;3.92;;
12976;SDS011;6553;48.412;9.514;2023-09-30T02:52:36;7.00;;;4.43;;
12976;SDS011;6553;48.412;9.514;2023-09-30T02:55:04;6.38;;;3.83;;
12976;SDS011;6553;48.412;9.514;2023-09-30T02:57:31;7.10;;;4.50;;
12976;SDS011;6553;48.412;9.514;2023-09-30T02:59:57;5.63;;;3.78;;
12976;SDS011;6553;48.412;9.514;2023-09-30T03:02:25;5.32;;;3.72;;
12976;SDS011;6553;48.412;9.514;2023-09-30T03:04:51;5.68;;;3.90;;
12976;SDS011;6553;48.412;9.514;2023-09-30T03:07:20;5.63;;;3.90;;
12976;SDS011;6553;48.412;9.514;2023-09-30T03:09:46;6.38;;;3.92;;
12976;SDS011;6553;48.412;9.514;2023-09-30T03:12:12;5.80;;;3.58;;
12976;SDS011;6553;48.412;9.514;2023-09-30T03:14:39;5.80;;;3.72;;
12976;SDS011;6553;48.412;9.514;2023-09-30T03:17:05;7.07;;;4.18;;
12976;SDS011;6553;48.412;9.514;2023-09-30T03:19:36;6.15;;;4.00;;
12976;SDS011;6553;48.412;9.514;2023-09-30T03:22:03;6.60;;;4.28;;
12976;SDS011;6553;48.412;9.514;2023-09-30T03:24:29;4.95;;;3.53;;
12976;SDS011;6553;48.412;9.514;2023-09-30T03:26:55;5.93;;;4.13;;
12976;SDS011;6553;48.412;9.514;2023-09-30T03:29:23;6.35;;;3.88;;
12976;SDS011;6553;48.412;9.514;2023-09-30T03:31:48;6.13;;;3.85;;
12976;SDS011;6553;48.412;9.514;2023-09-30T03:34:14;6.35;;;4.00;;
12976;SDS011;6553;48.412;9.514;2023-09-30T03:36:41;6.15;;;4.15;;
12976;SDS011;6553;48.412;9.514;2023-09-30T03:39:08;5.22;;;3.58;;
12976;SDS011;6553;48.412;9.514;2023-09-30T03:41:34;5.55;;;3.80;;
12976;SDS011;6553;48.412;9.514;2023-09-30T03:44:02;5.88;;;3.75;;
12976;SDS011;6553;48.412;9.514;2023-09-30T03:46:28;5.25;;;3.55;;
12976;SDS011;6553;48.412;9.514;2023-09-30T03:48:55;4.88;;;3.47;;
12976;SDS011;6553;48.412;9.514;2023-09-30T03:51:21;6.10;;;3.65;;
12976;SDS011;6553;48.412;9.514;2023-09-30T03:53:50;5.38;;;3.63;;
12976;SDS011;6553;48.412;9.514;2023-09-30T03:56:17;4.78;;;3.70;;
12976;SDS011;6553;48.412;9.514;2023-09-30T03:58:43;5.43;;;3.55;;
12976;SDS011;6553;48.412;9.514;2023-09-30T04:01:10;5.65;;;3.63;;
12976;SDS011;6553;48.412;9.514;2023-09-30T04:03:36;5.47;;;3.75;;
12976;SDS011;6553;48.412;9.514;2023-09-30T04:06:04;5.03;;;3.28;;
12976;SDS011;6553;48.412;9.514;2023-09-30T04:08:34;5.30;;;3.50;;
12976;SDS011;6553;48.412;9.514;2023-09-30T04:11:01;5.38;;;3.35;;
12976;SDS011;6553;48.412;9.514;2023-09-30T04:13:30;5.70;;;3.78;;
12976;SDS011;6553;48.412;9.514;2023-09-30T04:15:56;5.20;;;3.35;;
12976;SDS011;6553;48.412;9.514;2023-09-30T04:18:25;5.53;;;3.45;;
12976;SDS011;6553;48.412;9.514;2023-09-30T04:20:53;5.07;;;3.28;;
12976;SDS011;6553;48.412;9.514;2023-09-30T04:23:19;5.28;;;3.53;;
12976;SDS011;6553;48.412;9.514;2023-09-30T04:25:48;5.00;;;3.35;;
12976;SDS011;6553;48.412;9.514;2023-09-30T04:28:15;5.25;;;3.60;;
12976;SDS011;6553;48.412;9.514;2023-09-30T04:30:44;5.18;;;3.55;;
12976;SDS011;6553;48.412;9.514;2023-09-30T04:33:12;6.35;;;3.45;;
12976;SDS011;6553;48.412;9.514;2023-09-30T04:35:38;5.55;;;3.63;;
12976;SDS011;6553;48.412;9.514;2023-09-30T04:38:04;5.10;;;3.40;;
12976;SDS011;6553;48.412;9.514;2023-09-30T04:40:30;5.38;;;3.47;;
12976;SDS011;6553;48.412;9.514;2023-09-30T04:42:58;5.15;;;3.42;;
12976;SDS011;6553;48.412;9.514;2023-09-30T04:45:26;5.63;;;3.50;;
12976;SDS011;6553;48.412;9.514;2023-09-30T04:47:53;4.75;;;3.17;;
12976;SDS011;6553;48.412;9.514;2023-09-30T04:50:21;3.75;;;2.90;;
12976;SDS011;6553;48.412;9.514;2023-09-30T04:52:47;5.45;;;3.60;;
12976;SDS011;6553;48.412;9.514;2023-09-30T04:55:14;5.78;;;3.42;;
12976;SDS011;6553;48.412;9.514;2023-09-30T04:57:44;4.90;;;3.30;;
12976;SDS011;6553;48.412;9.514;2023-09-30T05:00:16;4.38;;;2.95;;
12976;SDS011;6553;48.412;9.514;2023-09-30T05:02:44;4.78;;;3.33;;
12976;SDS011;6553;48.412;9.514;2023-09-30T05:05:10;5.55;;;3.63;;
12976;SDS011;6553;48.412;9.514;2023-09-30T05:07:36;4.68;;;3.40;;
12976;SDS011;6553;48.412;9.514;2023-09-30T05:10:03;5.13;;;3.50;;
12976;SDS011;6553;48.412;9.514;2023-09-30T05:12:35;5.43;;;3.35;;
12976;SDS011;6553;48.412;9.514;2023-09-30T05:15:02;4.40;;;3.05;;
12976;SDS011;6553;48.412;9.514;2023-09-30T05:17:31;4.15;;;2.80;;
12976;SDS011;6553;48.412;9.514;2023-09-30T05:19:57;4.75;;;3.15;;
12976;SDS011;6553;48.412;9.514;2023-09-30T05:22:24;5.07;;;3.10;;
12976;SDS011;6553;48.412;9.514;2023-09-30T05:24:50;4.63;;;2.88;;
12976;SDS011;6553;48.412;9.514;2023-09-30T05:27:17;5.47;;;3.35;;
12976;SDS011;6553;48.412;9.514;2023-09-30T05:29:44;5.05;;;3.50;;
12976;SDS011;6553;48.412;9.514;2023-09-30T05:32:10;4.85;;;3.45;;
12976;SDS011;6553;48.412;9.514;2023-09-30T05:34:36;5.85;;;3.55;;
12976;SDS011;6553;48.412;9.514;2023-09-30T05:37:04;5.18;;;3.30;;
12976;SDS011;6553;48.412;9.514;2023-09-30T05:39:30;4.53;;;3.17;;
12976;SDS011;6553;48.412;9.514;2023-09-30T05:41:57;4.15;;;2.97;;
12976;SDS011;6553;48.412;9.514;2023-09-30T05:44:23;5.72;;;3.33;;
12976;SDS011;6553;48.412;9.514;2023-09-30T05:46:51;4.63;;;3.28;;
12976;SDS011;6553;48.412;9.514;2023-09-30T05:49:17;5.15;;;3.53;;
12976;SDS011;6553;48.412;9.514;2023-09-30T05:51:44;4.30;;;3.10;;
12976;SDS011;6553;48.412;9.514;2023-09-30T05:54:11;3.97;;;3.20;;
12976;SDS011;6553;48.412;9.514;2023-09-30T05:56:38;4.43;;;3.10;;
12976;SDS011;6553;48.412;9.514;2023-09-30T05:59:07;4.40;;;2.97;;
12976;SDS011;6553;48.412;9.514;2023-09-30T06:01:33;4.03;;;2.97;;
12976;SDS011;6553;48.412;9.514;2023-09-30T06:03:59;5.18;;;3.25;;
12976;SDS011;6553;48.412;9.514;2023-09-30T06:06:26;4.07;;;3.10;;
12976;SDS011;6553;48.412;9.514;2023-09-30T06:08:55;4.50;;;3.22;;
12976;SDS011;6553;48.412;9.514;2023-09-30T06:11:24;5.28;;;3.50;;
12976;SDS011;6553;48.412;9.514;2023-09-30T06:13:54;3.85;;;2.92;;
12976;SDS011;6553;48.412;9.514;2023-09-30T06:16:20;4.80;;;2.85;;
12976;SDS011;6553;48.412;9.514;2023-09-30T06:18:46;5.18;;;3.42;;
12976;SDS011;6553;48.412;9.514;2023-09-30T06:21:13;3.50;;;2.80;;
12976;SDS011;6553;48.412;9.514;2023-09-30T06:23:46;4.40;;;2.97;;
12976;SDS011;6553;48.412;9.514;2023-09-30T06:26:13;4.60;;;2.85;;
12976;SDS011;6553;48.412;9.514;2023-09-30T06:28:41;4.38;;;3.13;;
12976;SDS011;6553;48.412;9.514;2023-09-30T06:31:08;4.13;;;2.65;;
12976;SDS011;6553;48.412;9.514;2023-09-30T06:33:37;4.82;;;3.13;;
12976;SDS011;6553;48.412;9.514;2023-09-30T06:36:09;5.50;;;3.40;;
12976;SDS011;6553;48.412;9.514;2023-09-30T06:38:36;3.50;;;2.85;;
12976;SDS011;6553;48.412;9.514;2023-09-30T06:41:06;4.38;;;2.63;;
12976;SDS011;6553;48.412;9.514;2023-09-30T06:43:33;4.57;;;2.92;;
12976;SDS011;6553;48.412;9.514;2023-09-30T06:46:06;3.20;;;2.75;;
12976;SDS011;6553;48.412;9.514;2023-09-30T06:48:34;4.20;;;2.70;;
12976;SDS011;6553;48.412;9.514;2023-09-30T06:51:05;4.68;;;2.97;;
12976;SDS011;6553;48.412;9.514;2023-09-30T06:53:31;4.38;;;3.00;;
12976;SDS011;6553;48.412;9.514;2023-09-30T06:55:57;4.95;;;2.85;;
12976;SDS011;6553;48.412;9.514;2023-09-30T06:58:23;5.13;;;3.00;;
12976;SDS011;6553;48.412;9.514;2023-09-30T07:00:49;4.30;;;2.70;;
12976;SDS011;6553;48.412;9.514;2023-09-30T07:03:16;4.85;;;3.03;;
12976;SDS011;6553;48.412;9.514;2023-09-30T07:05:42;4.10;;;2.80;;
12976;SDS011;6553;48.412;9.514;2023-09-30T07:08:11;4.85;;;3.15;;
12976;SDS011;6553;48.412;9.514;2023-09-30T07:10:37;3.33;;;2.42;;
12976;SDS011;6553;48.412;9.514;2023-09-30T07:13:03;3.15;;;2.63;;
12976;SDS011;6553;48.412;9.514;2023-09-30T07:15:31;4.28;;;2.55;;
12976;SDS011;6553;48.412;9.514;2023-09-30T07:17:58;4.78;;;2.95;;
12976;SDS011;6553;48.412;9.514;2023-09-30T07:20:23;4.43;;;3.03;;
12976;SDS011;6553;48.412;9.514;2023-09-30T07:22:50;3.88;;;2.80;;
12976;SDS011;6553;48.412;9.514;2023-09-30T07:25:16;3.90;;;2.53;;
12976;SDS011;6553;48.412;9.514;2023-09-30T07:27:45;3.55;;;2.83;;
12976;SDS011;6553;48.412;9.514;2023-09-30T07:30:12;4.10;;;2.78;;
12976;SDS011;6553;48.412;9.514;2023-09-30T07:32:41;3.80;;;2.58;;
12976;SDS011;6553;48.412;9.514;2023-09-30T07:35:07;3.65;;;2.53;;
12976;SDS011;6553;48.412;9.514;2023-09-30T07:37:34;3.35;;;2.60;;
12976;SDS011;6553;48.412;9.514;2023-09-30T07:39:59;4.30;;;2.70;;
12976;SDS011;6553;48.412;9.514;2023-09-30T07:42:25;4.03;;;2.78;;
12976;SDS011;6553;48.412;9.514;2023-09-30T07:44:51;4.25;;;2.92;;
12976;SDS011;6553;48.412;9.514;2023-09-30T07:47:17;4.35;;;2.78;;
12976;SDS011;6553;48.412;9.514;2023-09-30T07:49:43;5.53;;;2.88;;
12976;SDS011;6553;48.412;9.514;2023-09-30T07:52:09;3.30;;;2.72;;
12976;SDS011;6553;48.412;9.514;2023-09-30T07:54:36;3.80;;;2.42;;
12976;SDS011;6553;48.412;9.514;2023-09-30T07:57:02;3.90;;;2.97;;
12976;SDS011;6553;48.412;9.514;2023-09-30T07:59:27;2.90;;;2.60;;
12976;SDS011;6553;48.412;9.514;2023-09-30T08:01:53;3.00;;;2.35;;
12976;SDS011;6553;48.412;9.514;2023-09-30T08:04:19;4.10;;;2.65;;
12976;SDS011;6553;48.412;9.514;2023-09-30T08:06:45;3.63;;;2.40;;
12976;SDS011;6553;48.412;9.514;2023-09-30T08:09:14;4.43;;;2.90;;
12976;SDS011;6553;48.412;9.514;2023-09-30T08:11:40;4.57;;;2.80;;
12976;SDS011;6553;48.412;9.514;2023-09-30T08:14:06;4.18;;;3.13;;
12976;SDS011;6553;48.412;9.514;2023-09-30T08:16:34;3.28;;;2.50;;
12976;SDS011;6553;48.412;9.514;2023-09-30T08:19:00;3.35;;;2.67;;
12976;SDS011;6553;48.412;9.514;2023-09-30T08:21:26;5.13;;;3.17;;
12976;SDS011;6553;48.412;9.514;2023-09-30T08:23:52;5.13;;;3.08;;
12976;SDS011;6553;48.412;9.514;2023-09-30T08:26:19;4.40;;;2.90;;
12976;SDS011;6553;48.412;9.514;2023-09-30T08:28:44;4.07;;;3.00;;
12976;SDS011;6553;48.412;9.514;2023-09-30T08:31:10;4.78;;;3.13;;
12976;SDS011;6553;48.412;9.514;2023-09-30T08:33:36;5.00;;;2.55;;
12976;SDS011;6553;48.412;9.514;2023-09-30T08:36:05;4.22;;;3.08;;
12976;SDS011;6553;48.412;9.514;2023-09-30T08:38:35;5.28;;;3.13;;
12976;SDS011;6553;48.412;9.514;2023-09-30T08:41:02;3.55;;;2.78;;
12976;SDS011;6553;48.412;9.514;2023-09-30T08:43:29;4.05;;;2.67;;
12976;SDS011;6553;48.412;9.514;2023-09-30T08:46:01;5.00;;;2.80;;
12976;SDS011;6553;48.412;9.514;2023-09-30T08:48:29;4.50;;;2.67;;
12976;SDS011;6553;48.412;9.514;2023-09-30T08:50:58;7.38;;;3.05;;
12976;SDS011;6553;48.412;9.514;2023-09-30T08:53:26;4.15;;;3.30;;
12976;SDS011;6553;48.412;9.514;2023-09-30T08:55:55;4.95;;;3.45;;
12976;SDS011;6553;48.412;9.514;2023-09-30T08:58:24;6.55;;;3.40;;
12976;SDS011;6553;48.412;9.514;2023-09-30T09:00:53;3.97;;;2.78;;
12976;SDS011;6553;48.412;9.514;2023-09-30T09:03:20;4.13;;;2.80;;
12976;SDS011;6553;48.412;9.514;2023-09-30T09:05:46;4.70;;;3.00;;
12976;SDS011;6553;48.412;9.514;2023-09-30T09:08:20;3.65;;;2.67;;
12976;SDS011;6553;48.412;9.514;2023-09-30T09:10:53;6.07;;;2.95;;
12976;SDS011;6553;48.412;9.514;2023-09-30T09:13:25;5.10;;;3.33;;
12976;SDS011;6553;48.412;9.514;2023-09-30T09:16:08;5.90;;;3.13;;
12976;SDS011;6553;48.412;9.514;2023-09-30T09:18:34;4.47;;;3.08;;
12976;SDS011;6553;48.412;9.514;2023-09-30T09:23:48;4.70;;;3.00;;
12976;SDS011;6553;48.412;9.514;2023-09-30T09:29:03;4.18;;;3.05;;
12976;SDS011;6553;48.412;9.514;2023-09-30T09:31:33;3.88;;;3.00;;
12976;SDS011;6553;48.412;9.514;2023-09-30T09:34:01;5.80;;;3.20;;
12976;SDS011;6553;48.412;9.514;2023-09-30T09:36:39;5.10;;;3.22;;
12976;SDS011;6553;48.412;9.514;2023-09-30T09:39:08;6.10;;;3.08;;
12976;SDS011;6553;48.412;9.514;2023-09-30T09:41:53;6.53;;;3.55;;
12976;SDS011;6553;48.412;9.514;2023-09-30T09:44:23;6.45;;;3.45;;
12976;SDS011;6553;48.412;9.514;2023-09-30T09:46:52;5.03;;;3.10;;
12976;SDS011;6553;48.412;9.514;2023-09-30T09:49:19;6.72;;;3.70;;
12976;SDS011;6553;48.412;9.514;2023-09-30T09:51:48;4.32;;;3.00;;
12976;SDS011;6553;48.412;9.514;2023-09-30T09:54:14;5.35;;;3.47;;
12976;SDS011;6553;48.412;9.514;2023-09-30T09:56:44;4.13;;;3.38;;
12976;SDS011;6553;48.412;9.514;2023-09-30T09:59:11;4.60;;;3.30;;
12976;SDS011;6553;48.412;9.514;2023-09-30T10:01:41;4.18;;;3.35;;
12976;SDS011;6553;48.412;9.514;2023-09-30T10:04:10;4.35;;;3.13;;
12976;SDS011;6553;48.412;9.514;2023-09-30T10:06:36;4.50;;;3.50;;
12976;SDS011;6553;48.412;9.514;2023-09-30T10:09:09;5.70;;;3.72;;
12976;SDS011;6553;48.412;9.514;2023-09-30T10:11:39;5.55;;;3.25;;
12976;SDS011;6553;48.412;9.514;2023-09-30T10:14:07;6.05;;;3.72;;
12976;SDS011;6553;48.412;9.514;2023-09-30T10:19:08;6.30;;;4.00;;
12976;SDS011;6553;48.412;9.514;2023-09-30T10:21:38;5.45;;;3.60;;
12976;SDS011;6553;48.412;9.514;2023-09-30T10:29:48;5.68;;;3.63;;
12976;SDS011;6553;48.412;9.514;2023-09-30T10:32:22;5.75;;;4.00;;
12976;SDS011;6553;48.412;9.514;2023-09-30T10:34:48;4.97;;;3.45;;
12976;SDS011;6553;48.412;9.514;2023-09-30T10:37:23;7.18;;;4.07;;
12976;SDS011;6553;48.412;9.514;2023-09-30T10:39:53;5.63;;;4.25;;
12976;SDS011;6553;48.412;9.514;2023-09-30T10:51:13;7.00;;;4.43;;
12976;SDS011;6553;48.412;9.514;2023-09-30T10:53:47;7.18;;;4.47;;
12976;SDS011;6553;48.412;9.514;2023-09-30T10:56:21;6.43;;;4.47;;
12976;SDS011;6553;48.412;9.514;2023-09-30T10:58:49;7.15;;;3.95;;
12976;SDS011;6553;48.412;9.514;2023-09-30T11:03:46;6.80;;;4.32;;
12976;SDS011;6553;48.412;9.514;2023-09-30T11:06:16;6.22;;;4.38;;
12976;SDS011;6553;48.412;9.514;2023-09-30T11:09:07;7.85;;;4.93;;
12976;SDS011;6553;48.412;9.514;2023-09-30T11:11:39;7.22;;;4.63;;
12976;SDS011;6553;48.412;9.514;2023-09-30T11:14:23;7.35;;;4.85;;
12976;SDS011;6553;48.412;9.514;2023-09-30T11:16:53;7.28;;;4.88;;
12976;SDS011;6553;48.412;9.514;2023-09-30T11:19:22;7.90;;;4.95;;
12976;SDS011;6553;48.412;9.514;2023-09-30T11:21:49;9.38;;;5.53;;
12976;SDS011;6553;48.412;9.514;2023-09-30T11:24:20;7.25;;;4.63;;
12976;SDS011;6553;48.412;9.514;2023-09-30T11:26:46;7.75;;;4.63;;
12976;SDS011;6553;48.412;9.514;2023-09-30T11:29:13;6.95;;;4.85;;
12976;SDS011;6553;48.412;9.514;2023-09-30T11:31:42;7.50;;;4.90;;
12976;SDS011;6553;48.412;9.514;2023-09-30T11:34:10;7.80;;;5.10;;
12976;SDS011;6553;48.412;9.514;2023-09-30T11:36:37;8.18;;;4.97;;
12976;SDS011;6553;48.412;9.514;2023-09-30T11:39:07;6.50;;;4.70;;
12976;SDS011;6553;48.412;9.514;2023-09-30T11:41:41;9.48;;;5.35;;
12976;SDS011;6553;48.412;9.514;2023-09-30T11:44:12;9.20;;;5.15;;
12976;SDS011;6553;48.412;9.514;2023-09-30T11:51:57;11.07;;;5.65;;
12976;SDS011;6553;48.412;9.514;2023-09-30T11:54:32;8.32;;;5.25;;
12976;SDS011;6553;48.412;9.514;2023-09-30T11:57:02;9.50;;;5.32;;
12976;SDS011;6553;48.412;9.514;2023-09-30T11:59:28;8.75;;;5.57;;
12976;SDS011;6553;48.412;9.514;2023-09-30T12:01:56;8.77;;;5.55;;
12976;SDS011;6553;48.412;9.514;2023-09-30T12:04:22;6.80;;;4.78;;
12976;SDS011;6553;48.412;9.514;2023-09-30T12:06:48;7.40;;;5.47;;
12976;SDS011;6553;48.412;9.514;2023-09-30T12:09:15;9.00;;;5.32;;
12976;SDS011;6553;48.412;9.514;2023-09-30T12:11:47;8.05;;;5.80;;
12976;SDS011;6553;48.412;9.514;2023-09-30T12:14:14;8.68;;;5.32;;
12976;SDS011;6553;48.412;9.514;2023-09-30T12:16:40;8.43;;;5.68;;
12976;SDS011;6553;48.412;9.514;2023-09-30T12:19:06;8.15;;;4.90;;
12976;SDS011;6553;48.412;9.514;2023-09-30T12:21:33;9.85;;;5.95;;
12976;SDS011;6553;48.412;9.514;2023-09-30T12:24:00;10.13;;;6.38;;
12976;SDS011;6553;48.412;9.514;2023-09-30T12:26:28;9.20;;;5.57;;
12976;SDS011;6553;48.412;9.514;2023-09-30T12:28:55;9.50;;;6.07;;
12976;SDS011;6553;48.412;9.514;2023-09-30T12:31:22;8.40;;;5.57;;
12976;SDS011;6553;48.412;9.514;2023-09-30T12:33:48;8.38;;;5.05;;
12976;SDS011;6553;48.412;9.514;2023-09-30T12:36:16;9.25;;;5.35;;
12976;SDS011;6553;48.412;9.514;2023-09-30T12:38:46;8.50;;;5.55;;
12976;SDS011;6553;48.412;9.514;2023-09-30T12:41:13;8.13;;;5.35;;
12976;SDS011;6553;48.412;9.514;2023-09-30T12:43:40;7.75;;;5.25;;
12976;SDS011;6553;48.412;9.514;2023-09-30T12:46:08;10.27;;;6.47;;
12976;SDS011;6553;48.412;9.514;2023-09-30T12:48:34;8.20;;;5.45;;
12976;SDS011;6553;48.412;9.514;2023-09-30T12:51:00;7.75;;;5.15;;
12976;SDS011;6553;48.412;9.514;2023-09-30T12:53:28;8.35;;;5.70;;
12976;SDS011;6553;48.412;9.514;2023-09-30T12:55:54;10.30;;;5.80;;
12976;SDS011;6553;48.412;9.514;2023-09-30T12:58:20;9.32;;;5.47;;
12976;SDS011;6553;48.412;9.514;2023-09-30T13:00:46;8.75;;;5.90;;
12976;SDS011;6553;48.412;9.514;2023-09-30T13:03:12;7.78;;;5.82;;
12976;SDS011;6553;48.412;9.514;2023-09-30T13:05:40;9.13;;;5.53;;
12976;SDS011;6553;48.412;9.514;2023-09-30T13:08:06;8.38;;;6.13;;
12976;SDS011;6553;48.412;9.514;2023-09-30T13:10:31;8.80;;;5.70;;
12976;SDS011;6553;48.412;9.514;2023-09-30T13:12:57;10.35;;;5.88;;
12976;SDS011;6553;48.412;9.514;2023-09-30T13:15:23;8.38;;;5.63;;
12976;SDS011;6553;48.412;9.514;2023-09-30T13:17:51;9.75;;;5.88;;
12976;SDS011;6553;48.412;9.514;2023-09-30T13:20:17;8.48;;;5.78;;
12976;SDS011;6553;48.412;9.514;2023-09-30T13:22:42;8.60;;;6.07;;
12976;SDS011;6553;48.412;9.514;2023-09-30T13:25:08;10.52;;;6.00;;
12976;SDS011;6553;48.412;9.514;2023-09-30T13:27:37;8.13;;;5.50;;
12976;SDS011;6553;48.412;9.514;2023-09-30T13:30:05;9.30;;;6.10;;
12976;SDS011;6553;48.412;9.514;2023-09-30T13:32:33;7.40;;;5.40;;
12976;SDS011;6553;48.412;9.514;2023-09-30T13:35:05;10.65;;;6.50;;
12976;SDS011;6553;48.412;9.514;2023-09-30T13:37:32;9.73;;;6.10;;
12976;SDS011;6553;48.412;9.514;2023-09-30T13:40:02;9.00;;;5.80;;
12976;SDS011;6553;48.412;9.514;2023-09-30T13:42:32;9.15;;;5.90;;
12976;SDS011;6553;48.412;9.514;2023-09-30T13:44:58;7.55;;;5.45;;
12976;SDS011;6553;48.412;9.514;2023-09-30T13:47:26;7.75;;;5.47;;
12976;SDS011;6553;48.412;9.514;2023-09-30T13:49:52;7.15;;;5.30;;
12976;SDS011;6553;48.412;9.514;2023-09-30T13:52:18;9.38;;;6.15;;
12976;SDS011;6553;48.412;9.514;2023-09-30T13:54:43;10.32;;;6.13;;
12976;SDS011;6553;48.412;9.514;2023-09-30T13:57:09;8.18;;;5.93;;
12976;SDS011;6553;48.412;9.514;2023-09-30T13:59:35;9.25;;;5.82;;
12976;SDS011;6553;48.412;9.514;2023-09-30T14:02:04;8.50;;;5.65;;
12976;SDS011;6553;48.412;9.514;2023-09-30T14:04:30;8.65;;;5.60;;
12976;SDS011;6553;48.412;9.514;2023-09-30T14:07:02;9.10;;;6.20;;
12976;SDS011;6553;48.412;9.514;2023-09-30T14:09:30;8.73;;;5.47;;
12976;SDS011;6553;48.412;9.514;2023-09-30T14:11:56;10.43;;;6.55;;
12976;SDS011;6553;48.412;9.514;2023-09-30T14:14:24;8.32;;;5.95;;
12976;SDS011;6553;48.412;9.514;2023-09-30T14:16:50;9.60;;;6.40;;
12976;SDS011;6553;48.412;9.514;2023-09-30T14:19:16;8.32;;;5.30;;
12976;SDS011;6553;48.412;9.514;2023-09-30T14:21:42;7.63;;;5.45;;
12976;SDS011;6553;48.412;9.514;2023-09-30T14:24:08;7.85;;;5.63;;
12976;SDS011;6553;48.412;9.514;2023-09-30T14:26:34;8.30;;;5.63;;
12976;SDS011;6553;48.412;9.514;2023-09-30T14:28:59;7.85;;;5.93;;
12976;SDS011;6553;48.412;9.514;2023-09-30T14:31:25;8.43;;;5.63;;
12976;SDS011;6553;48.412;9.514;2023-09-30T14:33:51;8.65;;;6.00;;
12976;SDS011;6553;48.412;9.514;2023-09-30T14:36:18;8.73;;;5.72;;
12976;SDS011;6553;48.412;9.514;2023-09-30T14:38:44;9.30;;;5.55;;
12976;SDS011;6553;48.412;9.514;2023-09-30T14:41:11;9.27;;;5.53;;
12976;SDS011;6553;48.412;9.514;2023-09-30T14:43:37;8.07;;;5.60;;
12976;SDS011;6553;48.412;9.514;2023-09-30T14:46:04;7.35;;;5.30;;
12976;SDS011;6553;48.412;9.514;2023-09-30T14:48:30;8.00;;;5.70;;
12976;SDS011;6553;48.412;9.514;2023-09-30T14:50:56;9.30;;;5.72;;
12976;SDS011;6553;48.412;9.514;2023-09-30T14:53:23;10.07;;;5.65;;
12976;SDS011;6553;48.412;9.514;2023-09-30T14:55:49;7.15;;;5.50;;
12976;SDS011;6553;48.412;9.514;2023-09-30T14:58:15;8.32;;;5.50;;
12976;SDS011;6553;48.412;9.514;2023-09-30T15:00:42;7.40;;;5.40;;
12976;SDS011;6553;48.412;9.514;2023-09-30T15:03:08;8.40;;;5.90;;
12976;SDS011;6553;48.412;9.514;2023-09-30T15:05:33;7.13;;;5.00;;
12976;SDS011;6553;48.412;9.514;2023-09-30T15:08:00;8.35;;;5.72;;
12976;SDS011;6553;48.412;9.514;2023-09-30T15:10:28;6.90;;;5.13;;
12976;SDS011;6553;48.412;9.514;2023-09-30T15:12:54;8.45;;;5.70;;
12976;SDS011;6553;48.412;9.514;2023-09-30T15:15:22;6.78;;;4.95;;
12976;SDS011;6553;48.412;9.514;2023-09-30T15:17:48;9.20;;;5.63;;
12976;SDS011;6553;48.412;9.514;2023-09-30T15:20:17;7.57;;;5.07;;
12976;SDS011;6553;48.412;9.514;2023-09-30T15:22:42;8.02;;;5.07;;
12976;SDS011;6553;48.412;9.514;2023-09-30T15:25:08;9.35;;;5.95;;
12976;SDS011;6553;48.412;9.514;2023-09-30T15:27:34;8.02;;;5.20;;
12976;SDS011;6553;48.412;9.514;2023-09-30T15:30:01;7.93;;;5.32;;
12976;SDS011;6553;48.412;9.514;2023-09-30T15:32:28;9.00;;;5.85;;